Time;durP1;ratioP1;P1;durP2;ratioP2;P2;SDS_P1;SDS_P2;PMS_P1;PMS_P2;Temp;Humidity;BMP_temperature;BMP_pressure;BME280_temperature;BME280_humidity;BME280_pressure;Samples;Min_cycle;Max_cycle;Signal;HPM_P1;HPM_P2
2022/08/16 00:00:20;;;;;;;14.77;10.20;;;;;;;;;;5080213;28;20498;-64
2022/08/16 00:02:46;;;;;;;12.35;10.10;;;;;;;;;;5078746;28;20040;-64
2022/08/16 00:05:12;;;;;;;11.23;9.00;;;;;;;;;;5074296;28;20035;-64
2022/08/16 00:07:37;;;;;;;12.30;9.88;;;;;;;;;;5083419;28;20032;-64
2022/08/16 00:10:04;;;;;;;11.65;9.48;;;;;;;;;;5072298;28;20056;-64
2022/08/16 00:12:29;;;;;;;15.52;9.95;;;;;;;;;;5075576;28;20055;-64
2022/08/16 00:15:09;;;;;;;12.35;9.02;;;;;;;;;;5078356;28;20028;-64
2022/08/16 00:17:34;;;;;;;12.32;9.65;;;;;;;;;;5079482;28;20175;-64
2022/08/16 00:19:59;;;;;;;14.20;10.60;;;;;;;;;;5079816;28;20039;-64
2022/08/16 00:22:25;;;;;;;11.15;9.45;;;;;;;;;;5091594;28;20031;-64
2022/08/16 00:24:50;;;;;;;11.73;9.38;;;;;;;;;;5077032;28;20064;-64
2022/08/16 00:27:16;;;;;;;14.52;10.30;;;;;;;;;;5089983;28;20015;-64
2022/08/16 00:29:41;;;;;;;13.98;10.05;;;;;;;;;;5087230;28;20020;-64
2022/08/16 00:32:07;;;;;;;12.65;9.48;;;;;;;;;;5077891;28;20031;-64
2022/08/16 00:34:34;;;;;;;12.38;9.60;;;;;;;;;;5068702;28;20032;-64
2022/08/16 00:36:59;;;;;;;12.07;9.57;;;;;;;;;;5077424;28;20114;-64
2022/08/16 00:39:25;;;;;;;12.52;9.65;;;;;;;;;;5072321;28;20032;-64
2022/08/16 00:41:50;;;;;;;13.45;10.15;;;;;;;;;;5076703;28;21001;-64
2022/08/16 00:44:17;;;;;;;11.52;9.48;;;;;;;;;;5070173;28;20094;-64
2022/08/16 00:46:50;;;;;;;11.43;9.13;;;;;;;;;;5080252;28;20479;-63
2022/08/16 00:49:15;;;;;;;11.40;9.57;;;;;;;;;;5077931;28;20075;-64
2022/08/16 00:51:41;;;;;;;13.50;9.35;;;;;;;;;;5079127;28;20048;-64
2022/08/16 00:54:06;;;;;;;11.63;9.25;;;;;;;;;;5075940;28;20484;-64
2022/08/16 00:56:34;;;;;;;13.93;10.40;;;;;;;;;;5080531;28;20032;-64
2022/08/16 00:59:00;;;;;;;16.08;9.90;;;;;;;;;;5077283;28;20027;-64
2022/08/16 01:01:25;;;;;;;12.20;9.38;;;;;;;;;;5082652;28;20024;-64
2022/08/16 01:03:52;;;;;;;13.38;9.57;;;;;;;;;;5070479;28;20042;-64
2022/08/16 01:06:18;;;;;;;13.50;10.30;;;;;;;;;;5080574;28;20027;-64
2022/08/16 01:08:45;;;;;;;12.50;9.43;;;;;;;;;;5071353;28;20055;-63
2022/08/16 01:11:12;;;;;;;12.27;9.45;;;;;;;;;;5069407;28;20477;-63
2022/08/16 01:13:38;;;;;;;11.88;9.60;;;;;;;;;;5070449;28;20086;-64
2022/08/16 01:16:11;;;;;;;14.82;10.27;;;;;;;;;;5073455;28;20028;-63
2022/08/16 01:18:43;;;;;;;12.70;10.20;;;;;;;;;;5081016;28;20023;-64
2022/08/16 01:21:26;;;;;;;13.02;10.27;;;;;;;;;;5080010;28;20044;-63
2022/08/16 01:23:52;;;;;;;11.82;9.82;;;;;;;;;;5073913;28;20068;-64
2022/08/16 01:26:18;;;;;;;11.85;9.07;;;;;;;;;;5075943;28;21961;-64
2022/08/16 01:28:43;;;;;;;13.35;9.25;;;;;;;;;;5076499;28;20039;-63
2022/08/16 01:31:09;;;;;;;10.43;9.20;;;;;;;;;;5095200;28;20035;-64
2022/08/16 01:33:34;;;;;;;12.73;10.00;;;;;;;;;;5070462;28;20482;-64
2022/08/16 01:36:05;;;;;;;13.07;9.85;;;;;;;;;;5079239;28;20037;-64
2022/08/16 01:38:33;;;;;;;12.80;9.93;;;;;;;;;;5071477;28;20040;-64
2022/08/16 01:41:00;;;;;;;13.88;9.48;;;;;;;;;;5073239;28;20123;-64
2022/08/16 01:43:26;;;;;;;13.57;9.85;;;;;;;;;;5079860;28;20113;-64
2022/08/16 01:45:55;;;;;;;13.20;9.38;;;;;;;;;;5077798;28;20116;-64
2022/08/16 01:48:23;;;;;;;11.85;9.43;;;;;;;;;;5079991;28;20024;-64
2022/08/16 01:50:50;;;;;;;12.85;9.57;;;;;;;;;;5084238;28;20375;-64
2022/08/16 01:53:16;;;;;;;10.65;9.10;;;;;;;;;;5065395;28;20040;-64
2022/08/16 01:56:08;;;;;;;13.38;9.30;;;;;;;;;;5076367;28;20077;-64
2022/08/16 01:58:34;;;;;;;11.85;9.80;;;;;;;;;;5077108;28;20035;-64
2022/08/16 02:01:00;;;;;;;11.88;9.45;;;;;;;;;;5071555;28;20099;-64
2022/08/16 02:03:27;;;;;;;12.15;8.93;;;;;;;;;;5076614;28;20032;-64
2022/08/16 02:05:53;;;;;;;11.10;9.05;;;;;;;;;;5080061;28;20035;-64
2022/08/16 02:08:18;;;;;;;12.15;9.75;;;;;;;;;;5071689;28;20163;-64
2022/08/16 02:10:44;;;;;;;11.73;9.52;;;;;;;;;;5080710;28;20039;-64
2022/08/16 02:13:10;;;;;;;12.35;9.73;;;;;;;;;;5075330;28;20161;-63
2022/08/16 02:15:40;;;;;;;13.40;9.65;;;;;;;;;;5065318;28;20042;-64
2022/08/16 02:18:06;;;;;;;11.95;9.00;;;;;;;;;;5080119;28;20035;-64
2022/08/16 02:20:34;;;;;;;12.23;9.93;;;;;;;;;;5084415;28;20032;-64
2022/08/16 02:23:00;;;;;;;11.60;8.93;;;;;;;;;;5074539;28;20043;-64
2022/08/16 02:25:26;;;;;;;12.30;10.55;;;;;;;;;;5076687;28;20036;-64
2022/08/16 02:27:52;;;;;;;11.73;9.35;;;;;;;;;;5070453;28;20032;-64
2022/08/16 02:30:21;;;;;;;16.27;10.85;;;;;;;;;;5073793;28;20050;-64
2022/08/16 02:32:46;;;;;;;14.80;9.95;;;;;;;;;;5078724;28;20043;-64
2022/08/16 02:35:12;;;;;;;13.07;9.20;;;;;;;;;;5078659;28;20035;-64
2022/08/16 02:37:38;;;;;;;13.55;9.63;;;;;;;;;;5077911;28;20055;-64
2022/08/16 02:40:04;;;;;;;12.38;9.77;;;;;;;;;;5073263;28;20039;-64
2022/08/16 02:42:30;;;;;;;11.60;9.52;;;;;;;;;;5073845;28;20114;-64
2022/08/16 02:44:55;;;;;;;11.88;9.73;;;;;;;;;;5074082;28;20115;-64
2022/08/16 02:47:22;;;;;;;13.05;9.90;;;;;;;;;;5084233;28;20024;-64
2022/08/16 02:49:48;;;;;;;11.70;9.65;;;;;;;;;;5106593;27;20494;-64
2022/08/16 02:52:15;;;;;;;13.10;10.07;;;;;;;;;;5099540;27;20033;-64
2022/08/16 02:54:41;;;;;;;12.23;9.55;;;;;;;;;;5076883;28;20039;-64
2022/08/16 02:57:06;;;;;;;11.15;9.15;;;;;;;;;;5079351;28;20032;-64
2022/08/16 02:59:32;;;;;;;13.38;9.90;;;;;;;;;;5075863;28;20537;-64
2022/08/16 03:01:57;;;;;;;10.95;9.63;;;;;;;;;;5075405;28;20779;-64
2022/08/16 03:04:27;;;;;;;14.18;10.20;;;;;;;;;;5076895;28;20115;-64
2022/08/16 03:06:53;;;;;;;12.48;9.70;;;;;;;;;;5076274;28;20048;-64
2022/08/16 03:09:25;;;;;;;12.93;9.60;;;;;;;;;;5075031;28;20028;-64
2022/08/16 03:11:52;;;;;;;12.52;10.07;;;;;;;;;;5073431;28;20405;-64
2022/08/16 03:14:18;;;;;;;11.85;9.25;;;;;;;;;;5077012;28;20057;-64
2022/08/16 03:16:45;;;;;;;13.73;9.57;;;;;;;;;;5078833;28;20016;-63
2022/08/16 03:19:11;;;;;;;14.15;9.88;;;;;;;;;;5084242;28;20066;-64
2022/08/16 03:21:36;;;;;;;11.98;9.43;;;;;;;;;;5091840;28;20342;-64
2022/08/16 03:24:03;;;;;;;12.40;9.43;;;;;;;;;;5074125;28;20036;-64
2022/08/16 03:26:28;;;;;;;13.60;9.57;;;;;;;;;;5078278;28;20044;-64
2022/08/16 03:28:54;;;;;;;13.43;10.20;;;;;;;;;;5078408;28;20505;-64
2022/08/16 03:31:20;;;;;;;12.65;10.00;;;;;;;;;;5074687;28;20040;-63
2022/08/16 03:33:45;;;;;;;12.48;9.32;;;;;;;;;;5077366;28;20383;-64
2022/08/16 03:36:11;;;;;;;11.43;9.18;;;;;;;;;;5077620;28;20041;-63
2022/08/16 03:38:39;;;;;;;13.73;10.05;;;;;;;;;;5067283;28;20032;-63
2022/08/16 03:41:10;;;;;;;15.40;10.93;;;;;;;;;;5076822;28;20547;-64
2022/08/16 03:43:36;;;;;;;13.98;10.40;;;;;;;;;;5073658;28;20024;-63
2022/08/16 03:46:01;;;;;;;11.68;9.27;;;;;;;;;;5080557;28;20572;-63
2022/08/16 03:48:32;;;;;;;12.27;9.90;;;;;;;;;;5084473;28;20020;-64
2022/08/16 03:51:00;;;;;;;;;;;;;;;;;;5082598;28;20436;-64
2022/08/16 03:53:26;;;;;;;13.80;10.50;;;;;;;;;;5076135;28;19915;-64
2022/08/16 03:55:52;;;;;;;14.25;10.50;;;;;;;;;;5078588;28;20076;-64
2022/08/16 03:58:17;;;;;;;12.77;10.20;;;;;;;;;;5078572;28;20036;-64
2022/08/16 04:00:43;;;;;;;13.70;10.45;;;;;;;;;;5073678;28;20070;-64
2022/08/16 04:03:14;;;;;;;12.75;9.98;;;;;;;;;;5075236;28;20040;-63
2022/08/16 04:05:42;;;;;;;14.23;10.30;;;;;;;;;;5076226;28;20043;-64
2022/08/16 04:08:08;;;;;;;15.73;10.68;;;;;;;;;;5070255;28;20046;-64
2022/08/16 04:10:33;;;;;;;12.63;10.13;;;;;;;;;;5078336;28;22100;-64
2022/08/16 04:12:59;;;;;;;11.25;9.55;;;;;;;;;;5072256;28;20051;-64
2022/08/16 04:15:24;;;;;;;11.40;9.48;;;;;;;;;;5074897;28;20047;-64
2022/08/16 04:18:05;;;;;;;12.02;10.27;;;;;;;;;;5079065;28;20028;-64
2022/08/16 04:20:30;;;;;;;12.35;10.05;;;;;;;;;;5100188;27;20050;-64
2022/08/16 04:22:58;;;;;;;13.00;10.57;;;;;;;;;;5071407;28;20028;-64
2022/08/16 04:25:24;;;;;;;12.63;9.98;;;;;;;;;;5077005;28;20539;-64
2022/08/16 04:27:50;;;;;;;11.68;9.98;;;;;;;;;;5076303;28;20039;-63
2022/08/16 04:30:16;;;;;;;15.32;10.88;;;;;;;;;;5078155;28;20024;-64
2022/08/16 04:32:47;;;;;;;12.18;9.98;;;;;;;;;;5059674;28;20032;-64
2022/08/16 04:35:15;;;;;;;13.48;9.90;;;;;;;;;;5075601;28;20088;-64
2022/08/16 04:37:41;;;;;;;13.05;9.52;;;;;;;;;;5076045;28;20041;-64
2022/08/16 04:40:14;;;;;;;12.90;10.75;;;;;;;;;;5076700;28;20024;-64
2022/08/16 04:42:41;;;;;;;12.25;9.95;;;;;;;;;;5066451;28;20027;-64
2022/08/16 04:45:09;;;;;;;12.18;9.70;;;;;;;;;;5080299;28;20043;-64
2022/08/16 04:47:35;;;;;;;14.77;10.02;;;;;;;;;;5077646;28;20051;-64
2022/08/16 04:50:03;;;;;;;13.38;10.75;;;;;;;;;;5066523;28;20585;-64
2022/08/16 04:52:28;;;;;;;13.25;10.13;;;;;;;;;;5079191;28;20051;-64
2022/08/16 04:54:54;;;;;;;13.45;9.70;;;;;;;;;;5071407;28;20025;-63
2022/08/16 04:57:20;;;;;;;13.13;10.48;;;;;;;;;;5070449;28;20482;-64
2022/08/16 04:59:45;;;;;;;14.43;10.48;;;;;;;;;;5078257;28;20030;-64
2022/08/16 05:02:10;;;;;;;11.70;10.27;;;;;;;;;;5073181;28;20033;-64
2022/08/16 05:04:36;;;;;;;13.05;10.27;;;;;;;;;;5072382;28;20440;-64
2022/08/16 05:07:02;;;;;;;12.10;9.98;;;;;;;;;;5076999;28;20038;-64
2022/08/16 05:09:47;;;;;;;14.60;11.50;;;;;;;;;;5072157;28;20062;-64
2022/08/16 05:12:13;;;;;;;13.73;10.02;;;;;;;;;;5086205;27;20039;-64
2022/08/16 05:14:39;;;;;;;13.50;10.73;;;;;;;;;;5072142;28;20441;-63
2022/08/16 05:17:04;;;;;;;13.38;10.65;;;;;;;;;;5075355;28;20071;-64
2022/08/16 05:19:30;;;;;;;12.50;10.20;;;;;;;;;;5077177;28;20025;-64
2022/08/16 05:22:08;;;;;;;23.35;16.85;;;;;;;;;;5076286;28;20032;-64
2022/08/16 05:24:38;;;;;;;28.45;18.55;;;;;;;;;;5069542;28;20056;-64
2022/08/16 05:27:03;;;;;;;31.95;19.08;;;;;;;;;;5073414;28;20029;-64
2022/08/16 05:29:29;;;;;;;28.88;19.38;;;;;;;;;;5067368;28;20090;-64
2022/08/16 05:32:04;;;;;;;33.13;20.45;;;;;;;;;;5077084;28;20065;-64
2022/08/16 05:34:30;;;;;;;35.63;20.58;;;;;;;;;;5074498;28;20040;-63
2022/08/16 05:36:56;;;;;;;31.00;19.50;;;;;;;;;;5069471;28;20044;-64
2022/08/16 05:39:25;;;;;;;29.70;19.30;;;;;;;;;;5074763;28;20116;-63
2022/08/16 05:41:52;;;;;;;32.08;20.25;;;;;;;;;;5079437;28;20028;-64
2022/08/16 05:44:19;;;;;;;38.25;19.63;;;;;;;;;;5071342;28;20028;-63
2022/08/16 05:46:44;;;;;;;34.75;20.80;;;;;;;;;;5067603;28;20230;-63
2022/08/16 05:49:15;;;;;;;35.35;19.83;;;;;;;;;;5077371;28;20135;-64
2022/08/16 05:51:42;;;;;;;32.05;19.38;;;;;;;;;;5088551;28;20056;-63
2022/08/16 05:54:10;;;;;;;33.13;21.15;;;;;;;;;;5068412;28;20040;-64
2022/08/16 05:56:36;;;;;;;31.85;20.52;;;;;;;;;;5077828;28;20377;-63
2022/08/16 05:59:02;;;;;;;36.35;21.73;;;;;;;;;;5077264;28;20062;-64
2022/08/16 06:01:27;;;;;;;36.22;20.65;;;;;;;;;;5073925;28;20534;-63
2022/08/16 06:03:54;;;;;;;37.90;22.20;;;;;;;;;;5087796;27;20174;-63
2022/08/16 06:06:28;;;;;;;33.15;20.15;;;;;;;;;;5064517;28;20414;-63
2022/08/16 06:08:53;;;;;;;34.38;20.00;;;;;;;;;;5064748;28;20040;-63
2022/08/16 06:11:19;;;;;;;39.83;22.10;;;;;;;;;;5074847;28;20147;-63
2022/08/16 06:13:51;;;;;;;36.78;22.15;;;;;;;;;;5070637;28;20052;-63
2022/08/16 06:16:26;;;;;;;36.38;21.98;;;;;;;;;;5075242;28;20019;-63
2022/08/16 06:18:52;;;;;;;39.78;21.85;;;;;;;;;;5072976;28;20076;-63
2022/08/16 06:21:18;;;;;;;37.88;21.80;;;;;;;;;;5077935;28;20469;-63
2022/08/16 06:23:45;;;;;;;38.85;21.80;;;;;;;;;;5081443;28;20339;-62
2022/08/16 06:26:12;;;;;;;33.97;21.27;;;;;;;;;;5082300;28;20020;-63
2022/08/16 06:28:42;;;;;;;35.60;21.17;;;;;;;;;;5075218;28;20531;-63
2022/08/16 06:31:15;;;;;;;34.38;19.95;;;;;;;;;;5077850;28;20062;-63
2022/08/16 06:33:45;;;;;;;44.25;21.88;;;;;;;;;;5078100;28;20042;-63
2022/08/16 06:36:12;;;;;;;33.38;19.33;;;;;;;;;;5081320;28;20028;-63
2022/08/16 06:38:37;;;;;;;35.08;19.80;;;;;;;;;;5076698;28;20034;-63
2022/08/16 06:41:13;;;;;;;32.17;18.73;;;;;;;;;;5077659;28;20101;-64
2022/08/16 06:43:39;;;;;;;34.28;18.73;;;;;;;;;;5074098;28;20066;-63
2022/08/16 06:46:09;;;;;;;31.80;19.98;;;;;;;;;;5080438;28;20024;-62
2022/08/16 06:48:35;;;;;;;37.20;20.40;;;;;;;;;;5079969;28;20024;-63
2022/08/16 06:51:03;;;;;;;38.03;19.65;;;;;;;;;;5082029;28;20114;-61
2022/08/16 06:53:32;;;;;;;33.20;20.40;;;;;;;;;;5074648;28;20036;-62
2022/08/16 06:56:04;;;;;;;28.40;18.30;;;;;;;;;;5092674;28;20783;-64
2022/08/16 06:58:41;;;;;;;30.98;19.40;;;;;;;;;;5084996;28;20096;-64
2022/08/16 07:01:11;;;;;;;31.48;18.60;;;;;;;;;;5080596;28;20023;-64
2022/08/16 07:03:37;;;;;;;30.15;18.10;;;;;;;;;;5080925;28;20114;-64
2022/08/16 07:06:04;;;;;;;31.38;17.25;;;;;;;;;;5078886;28;20028;-65
2022/08/16 07:08:41;;;;;;;35.22;21.17;;;;;;;;;;5072758;28;20044;-65
2022/08/16 07:11:07;;;;;;;32.60;19.35;;;;;;;;;;5072885;28;20084;-65
2022/08/16 07:13:34;;;;;;;27.90;17.90;;;;;;;;;;5076932;28;20555;-65
2022/08/16 07:15:59;;;;;;;33.15;20.10;;;;;;;;;;5071555;28;20027;-65
2022/08/16 07:18:27;;;;;;;27.08;17.98;;;;;;;;;;5031208;28;20435;-67
2022/08/16 07:20:53;;;;;;;131.15;51.75;;;;;;;;;;5087878;28;20024;-70
2022/08/16 07:23:19;;;;;;;27.60;17.13;;;;;;;;;;5075355;28;20039;-68
2022/08/16 07:25:50;;;;;;;25.13;16.83;;;;;;;;;;5072714;28;20077;-68
2022/08/16 07:28:16;;;;;;;27.40;16.38;;;;;;;;;;5080490;28;20490;-67
2022/08/16 07:30:41;;;;;;;22.00;15.32;;;;;;;;;;5086274;28;20056;-67
2022/08/16 07:33:10;;;;;;;23.00;15.75;;;;;;;;;;5059547;28;20033;-68
2022/08/16 07:35:37;;;;;;;25.90;16.00;;;;;;;;;;5067891;28;20024;-69
2022/08/16 07:38:05;;;;;;;28.58;16.20;;;;;;;;;;5077442;28;20630;-63
2022/08/16 07:40:38;;;;;;;20.80;14.43;;;;;;;;;;5084773;28;20023;-64
2022/08/16 07:43:04;;;;;;;24.95;15.95;;;;;;;;;;5072941;28;20479;-69
2022/08/16 07:45:30;;;;;;;24.17;14.98;;;;;;;;;;5076553;28;20144;-65
2022/08/16 07:47:55;;;;;;;23.63;14.65;;;;;;;;;;5079369;28;20435;-68
2022/08/16 07:50:21;;;;;;;26.20;14.40;;;;;;;;;;5054628;28;20584;-68
2022/08/16 07:52:47;;;;;;;19.83;13.85;;;;;;;;;;5057914;28;20036;-71
2022/08/16 07:55:15;;;;;;;26.65;15.65;;;;;;;;;;5097976;27;20025;-70
2022/08/16 07:57:41;;;;;;;24.73;14.85;;;;;;;;;;5076999;28;20038;-70
2022/08/16 08:00:08;;;;;;;22.33;14.77;;;;;;;;;;5072897;28;20032;-70
2022/08/16 08:02:39;;;;;;;23.15;15.10;;;;;;;;;;5077066;28;20139;-68
2022/08/16 08:05:05;;;;;;;21.70;14.32;;;;;;;;;;5092261;27;20035;-69
2022/08/16 08:07:31;;;;;;;23.52;14.18;;;;;;;;;;5041431;28;20051;-68
2022/08/16 08:09:58;;;;;;;26.92;15.05;;;;;;;;;;5080174;28;20031;-69
2022/08/16 08:12:23;;;;;;;25.80;14.32;;;;;;;;;;5085476;28;21141;-69
2022/08/16 08:14:49;;;;;;;21.77;13.80;;;;;;;;;;5075045;28;20497;-70
2022/08/16 08:17:16;;;;;;;23.42;14.90;;;;;;;;;;5081014;28;20082;-66
2022/08/16 08:19:41;;;;;;;20.58;14.68;;;;;;;;;;5080462;28;20491;-67
2022/08/16 08:22:09;;;;;;;19.38;14.05;;;;;;;;;;5065255;28;20081;-68
2022/08/16 08:24:40;;;;;;;20.77;13.23;;;;;;;;;;5058239;28;20036;-70
2022/08/16 08:27:07;;;;;;;29.48;14.25;;;;;;;;;;5078515;28;20032;-67
2022/08/16 08:29:34;;;;;;;27.35;14.68;;;;;;;;;;5082966;28;20162;-69
2022/08/16 08:31:59;;;;;;;20.83;14.18;;;;;;;;;;5085796;28;20477;-69
2022/08/16 08:34:25;;;;;;;20.48;13.00;;;;;;;;;;5065290;28;20053;-69
2022/08/16 08:36:51;;;;;;;22.17;13.57;;;;;;;;;;5094707;27;20062;-69
2022/08/16 08:39:27;;;;;;;21.48;13.05;;;;;;;;;;5053188;28;20016;-69
2022/08/16 08:41:53;;;;;;;20.08;14.10;;;;;;;;;;5066838;28;20059;-69
2022/08/16 08:44:20;;;;;;;20.30;13.25;;;;;;;;;;5069361;28;20021;-69
2022/08/16 08:46:45;;;;;;;20.25;13.05;;;;;;;;;;5084255;28;20032;-69
2022/08/16 08:49:11;;;;;;;22.95;13.90;;;;;;;;;;5074424;28;21731;-68
2022/08/16 08:51:39;;;;;;;18.70;12.32;;;;;;;;;;5070969;28;20030;-71
2022/08/16 08:54:10;;;;;;;16.75;12.15;;;;;;;;;;5077326;28;20691;-69
2022/08/16 08:56:41;;;;;;;21.98;14.18;;;;;;;;;;5069618;28;20350;-69
2022/08/16 08:59:38;;;;;;;25.42;13.32;;;;;;;;;;5058680;28;20040;-69
2022/08/16 09:02:07;;;;;;;20.90;13.77;;;;;;;;;;5079102;28;20784;-70
2022/08/16 09:04:51;;;;;;;17.95;13.25;;;;;;;;;;5073009;28;20036;-70
2022/08/16 09:07:20;;;;;;;16.92;13.63;;;;;;;;;;5069928;28;20044;-70
2022/08/16 09:09:46;;;;;;;20.15;13.07;;;;;;;;;;5079049;28;20043;-70
2022/08/16 09:12:13;;;;;;;20.15;13.23;;;;;;;;;;5061994;28;20079;-70
2022/08/16 09:14:48;;;;;;;19.13;13.27;;;;;;;;;;5071787;28;20470;-70
2022/08/16 09:17:14;;;;;;;16.80;13.25;;;;;;;;;;5084937;28;20122;-69
2022/08/16 09:19:40;;;;;;;17.92;12.20;;;;;;;;;;5068617;28;20028;-69
2022/08/16 09:22:06;;;;;;;18.10;12.90;;;;;;;;;;5082385;28;20035;-68
2022/08/16 09:24:32;;;;;;;18.75;12.82;;;;;;;;;;5086325;28;20024;-68
2022/08/16 09:26:58;;;;;;;17.70;11.57;;;;;;;;;;5088556;28;20036;-68
2022/08/16 09:29:23;;;;;;;20.90;12.77;;;;;;;;;;5049903;28;20032;-68
2022/08/16 09:31:49;;;;;;;16.48;11.50;;;;;;;;;;5086565;28;20040;-68
2022/08/16 09:34:15;;;;;;;18.05;12.23;;;;;;;;;;5073549;28;20123;-68
2022/08/16 09:36:40;;;;;;;19.13;11.90;;;;;;;;;;5084576;28;20077;-70
2022/08/16 09:39:06;;;;;;;16.73;12.20;;;;;;;;;;5077890;28;20028;-68
2022/08/16 09:41:32;;;;;;;16.65;11.77;;;;;;;;;;5075354;28;20030;-68
2022/08/16 09:43:58;;;;;;;17.65;12.45;;;;;;;;;;5055867;28;20635;-69
2022/08/16 09:46:24;;;;;;;20.35;13.07;;;;;;;;;;5060725;28;20035;-68
2022/08/16 09:48:51;;;;;;;15.32;11.40;;;;;;;;;;5075418;28;20084;-68
2022/08/16 09:51:17;;;;;;;19.33;12.52;;;;;;;;;;5085027;28;20492;-70
2022/08/16 09:53:43;;;;;;;17.63;12.95;;;;;;;;;;5079179;28;20027;-70
2022/08/16 09:56:29;;;;;;;18.75;12.05;;;;;;;;;;5090768;28;20024;-71
2022/08/16 09:58:55;;;;;;;16.40;12.13;;;;;;;;;;5077469;28;20047;-71
2022/08/16 10:01:21;;;;;;;22.08;12.57;;;;;;;;;;5054713;28;20035;-69
2022/08/16 10:03:46;;;;;;;19.15;11.68;;;;;;;;;;5084912;28;20035;-70
2022/08/16 10:06:11;;;;;;;18.25;12.23;;;;;;;;;;5089492;28;20229;-70
2022/08/16 10:08:37;;;;;;;20.58;11.68;;;;;;;;;;5080394;28;20020;-69
2022/08/16 10:13:46;;;;;;;19.77;11.88;;;;;;;;;;5083321;28;20138;-70
2022/08/16 10:16:12;;;;;;;16.05;11.75;;;;;;;;;;5064446;28;20166;-69
2022/08/16 10:18:39;;;;;;;17.85;11.77;;;;;;;;;;5079042;28;20131;-70
2022/08/16 10:21:05;;;;;;;15.57;10.95;;;;;;;;;;5086346;28;20478;-69
2022/08/16 10:23:30;;;;;;;14.63;11.40;;;;;;;;;;5083931;28;20050;-69
2022/08/16 10:25:56;;;;;;;14.07;11.20;;;;;;;;;;5089064;28;20036;-70
2022/08/16 10:28:21;;;;;;;14.32;10.82;;;;;;;;;;5076388;28;20054;-68
2022/08/16 10:30:47;;;;;;;15.35;11.32;;;;;;;;;;5078838;28;20482;-68
2022/08/16 10:33:13;;;;;;;17.27;11.23;;;;;;;;;;5046541;28;21859;-68
2022/08/16 10:35:39;;;;;;;16.52;11.35;;;;;;;;;;5081337;28;20113;-68
2022/08/16 10:38:04;;;;;;;14.57;10.00;;;;;;;;;;5075513;28;20051;-68
2022/08/16 10:40:30;;;;;;;14.57;10.88;;;;;;;;;;5067900;28;20772;-69
2022/08/16 10:42:57;;;;;;;12.25;10.40;;;;;;;;;;5082453;28;20500;-68
2022/08/16 10:45:24;;;;;;;17.05;11.25;;;;;;;;;;5084406;28;20031;-68
2022/08/16 10:47:50;;;;;;;12.93;10.68;;;;;;;;;;5072773;28;20032;-68
2022/08/16 10:50:15;;;;;;;14.02;10.32;;;;;;;;;;5054069;28;20488;-68
2022/08/16 10:52:40;;;;;;;15.65;10.57;;;;;;;;;;5075331;28;20032;-68
2022/08/16 10:55:11;;;;;;;14.65;10.02;;;;;;;;;;5079538;28;20023;-69
2022/08/16 10:57:36;;;;;;;15.63;10.80;;;;;;;;;;5082700;28;20144;-68
2022/08/16 11:00:06;;;;;;;13.43;10.50;;;;;;;;;;5070797;28;20091;-69
2022/08/16 11:02:31;;;;;;;14.40;10.70;;;;;;;;;;5076303;28;20478;-69
2022/08/16 11:04:58;;;;;;;14.90;10.40;;;;;;;;;;5046927;28;20129;-69
2022/08/16 11:07:23;;;;;;;11.27;10.00;;;;;;;;;;5074123;28;20055;-68
2022/08/16 11:09:49;;;;;;;14.60;10.20;;;;;;;;;;5078410;28;20036;-69
2022/08/16 11:12:14;;;;;;;12.13;10.15;;;;;;;;;;5074354;28;20363;-69
2022/08/16 11:14:40;;;;;;;14.02;10.85;;;;;;;;;;5075285;28;20071;-69
2022/08/16 11:17:05;;;;;;;12.35;10.32;;;;;;;;;;5073928;28;20029;-69
2022/08/16 11:19:32;;;;;;;14.00;10.48;;;;;;;;;;5073500;28;20036;-69
2022/08/16 11:21:58;;;;;;;13.35;10.05;;;;;;;;;;5055508;28;20024;-69
2022/08/16 11:24:24;;;;;;;13.27;9.70;;;;;;;;;;5076974;28;20191;-69
2022/08/16 11:26:51;;;;;;;12.23;10.18;;;;;;;;;;5077045;28;20676;-70
2022/08/16 11:29:17;;;;;;;14.43;9.93;;;;;;;;;;5081692;28;20533;-69
2022/08/16 11:31:42;;;;;;;13.32;10.07;;;;;;;;;;5066464;28;20040;-70
2022/08/16 11:34:08;;;;;;;12.93;10.23;;;;;;;;;;5074660;28;20020;-70
2022/08/16 11:36:33;;;;;;;13.23;10.43;;;;;;;;;;5076342;28;20023;-70
2022/08/16 11:38:58;;;;;;;14.35;10.07;;;;;;;;;;5053234;28;20028;-70
2022/08/16 11:41:25;;;;;;;12.60;9.75;;;;;;;;;;5083592;28;20054;-70
2022/08/16 11:43:50;;;;;;;13.05;9.88;;;;;;;;;;5076233;28;20040;-70
2022/08/16 11:46:16;;;;;;;12.68;9.70;;;;;;;;;;5079046;28;20270;-70
2022/08/16 11:48:44;;;;;;;12.80;10.63;;;;;;;;;;5076889;28;20036;-70
2022/08/16 11:51:10;;;;;;;13.52;10.27;;;;;;;;;;5076356;28;20723;-70
2022/08/16 11:53:36;;;;;;;14.25;10.25;;;;;;;;;;5072747;28;20036;-70
2022/08/16 11:56:01;;;;;;;12.35;9.93;;;;;;;;;;5049169;28;20021;-70
2022/08/16 11:58:27;;;;;;;14.27;9.90;;;;;;;;;;5074660;28;20027;-70
2022/08/16 12:00:54;;;;;;;11.40;10.05;;;;;;;;;;5068878;28;20033;-70
2022/08/16 12:03:20;;;;;;;15.60;10.70;;;;;;;;;;5057875;28;20031;-69
2022/08/16 12:05:46;;;;;;;12.13;9.90;;;;;;;;;;5075625;28;20063;-70
2022/08/16 12:08:13;;;;;;;14.05;10.25;;;;;;;;;;5070115;28;20909;-70
2022/08/16 12:10:39;;;;;;;11.85;9.63;;;;;;;;;;5074344;28;20046;-70
2022/08/16 12:13:08;;;;;;;14.85;10.88;;;;;;;;;;5053866;28;20055;-70
2022/08/16 12:15:34;;;;;;;13.18;9.82;;;;;;;;;;5076197;28;20082;-70
2022/08/16 12:17:59;;;;;;;12.30;9.93;;;;;;;;;;5069511;28;20408;-70
2022/08/16 12:20:26;;;;;;;12.65;10.23;;;;;;;;;;5075103;28;20025;-70
2022/08/16 12:22:52;;;;;;;11.98;10.00;;;;;;;;;;5071872;28;20066;-70
2022/08/16 12:25:18;;;;;;;11.95;9.25;;;;;;;;;;5075033;28;20654;-70
2022/08/16 12:27:45;;;;;;;13.43;10.07;;;;;;;;;;5074726;28;20131;-70
2022/08/16 12:30:12;;;;;;;13.25;10.30;;;;;;;;;;5048870;28;22511;-71
2022/08/16 12:32:37;;;;;;;11.73;9.30;;;;;;;;;;5076939;28;20755;-71
2022/08/16 12:35:05;;;;;;;10.77;9.50;;;;;;;;;;5066534;28;20043;-69
2022/08/16 12:37:30;;;;;;;13.60;10.25;;;;;;;;;;5073214;28;20032;-70
2022/08/16 12:39:56;;;;;;;11.68;10.23;;;;;;;;;;5073616;27;20549;-70
2022/08/16 12:42:23;;;;;;;14.45;10.90;;;;;;;;;;5076031;28;20115;-70
2022/08/16 12:44:48;;;;;;;17.95;10.93;;;;;;;;;;5080323;28;20656;-69
2022/08/16 12:49:58;;;;;;;13.10;10.25;;;;;;;;;;5078316;28;20028;-69
2022/08/16 12:52:24;;;;;;;12.38;10.38;;;;;;;;;;5070056;28;20042;-70
2022/08/16 12:54:49;;;;;;;14.57;9.93;;;;;;;;;;5069195;28;20092;-70
2022/08/16 12:57:14;;;;;;;12.27;10.15;;;;;;;;;;5072033;28;20046;-70
2022/08/16 12:59:41;;;;;;;13.23;10.70;;;;;;;;;;5067621;28;20107;-70
2022/08/16 13:02:06;;;;;;;14.07;10.30;;;;;;;;;;5054298;28;20031;-70
2022/08/16 13:04:32;;;;;;;12.82;10.68;;;;;;;;;;5075752;28;20745;-70
2022/08/16 13:07:02;;;;;;;12.15;10.63;;;;;;;;;;5079295;28;20045;-69
2022/08/16 13:09:30;;;;;;;13.38;9.60;;;;;;;;;;5067566;28;20036;-69
2022/08/16 13:12:01;;;;;;;14.30;10.45;;;;;;;;;;5081298;28;20401;-69
2022/08/16 13:14:28;;;;;;;13.85;10.13;;;;;;;;;;5072923;28;20595;-70
2022/08/16 13:16:54;;;;;;;14.27;10.85;;;;;;;;;;5075584;28;20043;-70
2022/08/16 13:19:19;;;;;;;11.82;10.18;;;;;;;;;;5050568;28;20401;-69
2022/08/16 13:21:44;;;;;;;12.98;10.45;;;;;;;;;;5082974;28;20028;-69
2022/08/16 13:24:10;;;;;;;13.40;10.35;;;;;;;;;;5071923;28;20028;-69
2022/08/16 13:26:35;;;;;;;14.40;10.73;;;;;;;;;;5074714;28;20036;-68
2022/08/16 13:29:00;;;;;;;13.32;9.93;;;;;;;;;;5075059;28;20032;-68
2022/08/16 13:31:26;;;;;;;15.80;11.15;;;;;;;;;;5066811;28;20063;-68
2022/08/16 13:33:51;;;;;;;13.55;11.10;;;;;;;;;;5064601;28;20039;-68
2022/08/16 13:36:16;;;;;;;14.32;10.35;;;;;;;;;;5049290;28;20028;-68
2022/08/16 13:38:42;;;;;;;14.60;10.50;;;;;;;;;;5076694;28;20462;-70
2022/08/16 13:41:08;;;;;;;14.15;10.48;;;;;;;;;;5077505;28;20179;-69
2022/08/16 13:43:34;;;;;;;12.63;11.13;;;;;;;;;;5069857;28;20085;-69
2022/08/16 13:46:02;;;;;;;13.77;10.75;;;;;;;;;;5074326;28;20526;-69
2022/08/16 13:48:28;;;;;;;12.52;10.65;;;;;;;;;;5081588;28;20130;-69
2022/08/16 13:50:54;;;;;;;12.13;9.90;;;;;;;;;;5070168;28;20586;-69
2022/08/16 13:53:20;;;;;;;12.60;10.43;;;;;;;;;;5060441;28;20040;-69
2022/08/16 13:55:46;;;;;;;14.20;10.50;;;;;;;;;;5082711;28;20051;-69
2022/08/16 13:58:11;;;;;;;12.50;9.85;;;;;;;;;;5077536;28;20039;-68
2022/08/16 14:00:37;;;;;;;12.57;10.88;;;;;;;;;;5076212;28;20024;-69
2022/08/16 14:03:02;;;;;;;11.80;9.68;;;;;;;;;;5080710;28;20028;-69
2022/08/16 14:05:27;;;;;;;13.30;9.65;;;;;;;;;;5073144;28;20032;-69
2022/08/16 14:07:53;;;;;;;11.20;9.40;;;;;;;;;;5076172;28;20036;-69
2022/08/16 14:10:18;;;;;;;13.27;10.27;;;;;;;;;;5056715;28;20540;-69
2022/08/16 14:12:44;;;;;;;14.60;10.30;;;;;;;;;;5076192;28;20569;-69
2022/08/16 14:15:11;;;;;;;12.95;10.20;;;;;;;;;;5081235;28;20071;-68
2022/08/16 14:17:36;;;;;;;10.63;9.52;;;;;;;;;;5079548;28;20135;-69
2022/08/16 14:20:03;;;;;;;11.85;10.07;;;;;;;;;;5080370;28;20020;-70
2022/08/16 14:22:30;;;;;;;12.07;9.95;;;;;;;;;;5077838;28;20780;-68
2022/08/16 14:24:58;;;;;;;10.85;9.15;;;;;;;;;;5046316;28;20496;-68